createdAt,value
2018-02-21T00:02:18.734Z,128.50
2018-02-21T00:04:46.513Z,87.27
2018-02-21T00:07:14.527Z,73.07
2018-02-21T00:09:41.995Z,80.17
2018-02-21T00:12:09.449Z,87.47
2018-02-21T00:14:37.214Z,73.27
2018-02-21T00:17:04.676Z,87.40
2018-02-21T00:19:32.140Z,63.60
2018-02-21T00:21:59.897Z,70.00
2018-02-21T00:24:27.351Z,62.43
2018-02-21T00:26:54.820Z,66.70
2018-02-21T00:29:22.885Z,59.57
2018-02-21T00:31:50.333Z,81.23
2018-02-21T00:34:17.794Z,62.47
2018-02-21T00:36:45.530Z,67.93
2018-02-21T00:39:13.026Z,94.63
2018-02-21T00:41:40.451Z,79.87
2018-02-21T00:44:08.882Z,56.57
2018-02-21T00:46:36.338Z,60.03
2018-02-21T00:49:03.816Z,57.17
2018-02-21T00:51:31.776Z,71.93
2018-02-21T00:54:00.023Z,67.60
2018-02-21T00:56:27.491Z,67.83
2018-02-21T00:58:55.482Z,65.10
2018-02-21T01:01:22.945Z,63.07
2018-02-21T01:03:50.405Z,72.40
2018-02-21T01:06:18.165Z,62.93
2018-02-21T01:08:45.625Z,77.47
2018-02-21T01:11:13.075Z,77.33
2018-02-21T01:13:40.761Z,65.57
2018-02-21T01:16:08.218Z,61.77
2018-02-21T01:18:35.677Z,74.60
2018-02-21T01:21:03.546Z,58.33
2018-02-21T01:23:31.018Z,82.47
2018-02-21T01:25:58.473Z,60.83
2018-02-21T01:28:26.242Z,80.87
2018-02-21T01:30:53.702Z,62.67
2018-02-21T01:33:21.162Z,68.40
2018-02-21T01:35:48.924Z,61.13
2018-02-21T01:38:16.369Z,67.00
2018-02-21T01:40:43.829Z,75.13
2018-02-21T01:43:11.602Z,53.33
2018-02-21T01:45:39.089Z,60.93
2018-02-21T01:48:06.541Z,74.10
2018-02-21T01:53:32.003Z,61.93
2018-02-21T01:55:59.925Z,62.53
2018-02-21T01:58:27.378Z,73.93
2018-02-21T02:00:54.834Z,117.93
2018-02-21T02:03:22.615Z,58.30
2018-02-21T02:05:50.071Z,62.10
2018-02-21T02:08:17.532Z,67.93
2018-02-21T02:10:45.614Z,67.87
2018-02-21T02:15:45.953Z,69.27
2018-02-21T02:18:13.838Z,75.57
2018-02-21T02:20:41.337Z,102.93
2018-02-21T02:23:08.798Z,74.97
2018-02-21T02:25:36.522Z,72.73
2018-02-21T02:28:03.989Z,62.63
2018-02-21T02:30:31.445Z,64.37
2018-02-21T02:32:59.247Z,64.87
2018-02-21T02:35:26.711Z,64.30
2018-02-21T02:37:54.171Z,71.60
2018-02-21T02:40:21.880Z,61.53
2018-02-21T02:42:49.327Z,66.77
2018-02-21T02:45:16.783Z,83.03
2018-02-21T02:47:44.445Z,76.37
2018-02-21T02:50:11.919Z,69.60
2018-02-21T02:52:39.388Z,63.23
2018-02-21T02:55:07.257Z,73.47
2018-02-21T02:57:35.091Z,63.17
2018-02-21T03:00:02.832Z,86.03
2018-02-21T03:02:30.572Z,75.20
2018-02-21T03:04:58.076Z,88.03
2018-02-21T03:07:25.540Z,97.17
2018-02-21T03:09:53.552Z,66.83
2018-02-21T03:12:21.018Z,75.67
2018-02-21T03:14:48.479Z,70.73
2018-02-21T03:17:16.249Z,75.13
2018-02-21T03:19:44.282Z,75.60
2018-02-21T03:22:11.758Z,65.93
2018-02-21T03:27:12.244Z,73.47
2018-02-21T03:36:23.675Z,68.03
2018-02-21T03:38:51.173Z,72.27
2018-02-21T03:41:18.626Z,65.57
2018-02-21T03:46:18.963Z,72.53
2018-02-21T03:48:46.419Z,80.33
2018-02-21T03:51:14.267Z,86.43
2018-02-21T03:53:41.726Z,70.37
2018-02-21T03:56:09.187Z,64.60
2018-02-21T03:58:39.410Z,83.33
2018-02-21T04:01:06.885Z,67.57
2018-02-21T04:03:34.337Z,81.57
2018-02-21T04:06:02.090Z,74.97
2018-02-21T04:08:29.553Z,91.20
2018-02-21T04:10:57.016Z,65.77
2018-02-21T04:13:24.835Z,65.70
2018-02-21T04:15:52.286Z,67.87
2018-02-21T04:18:19.744Z,69.00
2018-02-21T04:20:47.477Z,72.90
2018-02-21T04:23:14.946Z,71.00
2018-02-21T04:25:42.411Z,59.60
2018-02-21T04:28:10.156Z,80.87
2018-02-21T04:30:37.637Z,79.50
2018-02-21T04:33:05.097Z,65.67
2018-02-21T04:35:32.844Z,62.77
2018-02-21T04:38:00.316Z,86.60
2018-02-21T04:40:27.816Z,63.40
2018-02-21T04:42:55.530Z,72.03
2018-02-21T04:45:22.982Z,81.47
2018-02-21T04:47:50.443Z,73.30
2018-02-21T04:50:18.205Z,80.47
2018-02-21T04:52:45.657Z,73.73
2018-02-21T04:58:30.646Z,70.87
2018-02-21T05:00:59.055Z,63.10
2018-02-21T05:03:26.525Z,98.40
2018-02-21T05:05:53.981Z,80.10
2018-02-21T05:08:21.729Z,75.50
2018-02-21T05:10:49.203Z,72.10
2018-02-21T05:13:16.656Z,74.90
2018-02-21T05:15:44.530Z,75.53
2018-02-21T05:18:12.009Z,80.43
2018-02-21T05:20:39.489Z,76.87
2018-02-21T05:23:07.175Z,84.33
2018-02-21T05:25:34.636Z,105.37
2018-02-21T05:28:02.092Z,80.00
2018-02-21T05:30:30.108Z,96.60
2018-02-21T05:32:57.580Z,72.13
2018-02-21T05:35:25.039Z,74.47
2018-02-21T05:37:52.668Z,61.87
2018-02-21T05:40:20.121Z,87.10
2018-02-21T05:42:47.575Z,66.83
2018-02-21T05:45:15.521Z,72.87
2018-02-21T05:47:42.949Z,74.30
2018-02-21T05:50:10.401Z,62.60
2018-02-21T05:52:38.218Z,65.57
2018-02-21T05:55:05.686Z,75.83
2018-02-21T05:57:33.144Z,73.27
2018-02-21T06:00:00.857Z,79.60
2018-02-21T06:02:28.653Z,73.87
2018-02-21T06:04:56.124Z,68.90
2018-02-21T06:07:23.842Z,72.27
2018-02-21T06:09:51.313Z,80.97
2018-02-21T06:12:18.769Z,67.70
2018-02-21T06:14:46.414Z,80.47
2018-02-21T06:17:13.865Z,68.17
2018-02-21T06:19:41.377Z,64.80
2018-02-21T06:22:09.531Z,63.17
2018-02-21T06:24:36.991Z,80.57
2018-02-21T06:27:04.446Z,62.30
2018-02-21T06:29:32.550Z,79.20
2018-02-21T06:32:00.011Z,65.30
2018-02-21T06:34:27.488Z,85.03
2018-02-21T06:36:55.527Z,67.40
2018-02-21T06:39:22.977Z,92.60
2018-02-21T06:41:50.453Z,95.57
2018-02-21T06:44:18.542Z,80.97
2018-02-21T06:46:46.208Z,73.13
2018-02-21T06:49:13.665Z,75.10
2018-02-21T06:51:41.372Z,88.87
2018-02-21T06:54:08.839Z,69.70
2018-02-21T06:56:36.299Z,64.90
2018-02-21T06:59:04.172Z,71.03
2018-02-21T07:01:31.640Z,73.80
2018-02-21T07:03:59.480Z,69.83
2018-02-21T07:06:27.186Z,103.10
2018-02-21T07:08:54.646Z,65.80
2018-02-21T07:11:22.107Z,68.50
2018-02-21T07:13:49.872Z,72.20
2018-02-21T07:16:17.332Z,72.17
2018-02-21T07:18:44.821Z,88.73
2018-02-21T07:21:12.560Z,63.50
2018-02-21T07:23:40.008Z,70.20
2018-02-21T07:26:07.493Z,66.03
2018-02-21T07:28:35.549Z,69.37
2018-02-21T07:31:03.012Z,82.70
2018-02-21T07:33:30.482Z,84.30
2018-02-21T07:35:58.234Z,69.57
2018-02-21T07:38:25.692Z,71.30
2018-02-21T07:40:53.167Z,86.63
2018-02-21T07:43:20.898Z,74.97
2018-02-21T07:45:48.357Z,62.13
2018-02-21T07:48:15.805Z,91.83
2018-02-21T07:50:43.609Z,97.30
2018-02-21T07:53:11.060Z,75.37
2018-02-21T07:55:38.509Z,89.37
2018-02-21T07:58:06.297Z,68.07
2018-02-21T08:00:33.756Z,80.00
2018-02-21T08:03:01.308Z,66.83
2018-02-21T08:05:29.606Z,82.00
2018-02-21T08:07:57.063Z,77.47
2018-02-21T08:10:24.523Z,76.23
2018-02-21T08:12:52.277Z,66.00
2018-02-21T08:15:19.783Z,78.93
2018-02-21T08:17:47.225Z,87.57
2018-02-21T08:20:14.977Z,74.93
2018-02-21T08:22:42.462Z,80.77
2018-02-21T08:25:09.938Z,74.83
2018-02-21T08:27:37.670Z,79.57
2018-02-21T08:30:05.126Z,75.90
2018-02-21T08:32:32.576Z,65.33
2018-02-21T08:35:00.348Z,83.77
2018-02-21T08:37:27.799Z,78.17
2018-02-21T08:39:55.249Z,74.53
2018-02-21T08:42:23.348Z,72.53
2018-02-21T08:44:50.843Z,73.97
2018-02-21T08:47:18.335Z,73.03
2018-02-21T08:49:45.949Z,74.73
2018-02-21T08:52:13.409Z,72.70
2018-02-21T08:54:41.330Z,75.97
2018-02-21T08:57:09.070Z,77.27
2018-02-21T08:59:36.541Z,69.90
2018-02-21T09:02:03.993Z,69.23
2018-02-21T09:04:31.712Z,82.50
2018-02-21T09:06:59.165Z,87.37
2018-02-21T09:09:26.630Z,67.23
2018-02-21T09:11:54.401Z,76.53
2018-02-21T09:14:21.901Z,66.10
2018-02-21T09:16:49.365Z,77.50
2018-02-21T09:19:17.042Z,71.70
2018-02-21T09:21:44.493Z,62.17
2018-02-21T09:24:11.949Z,67.10
2018-02-21T09:26:39.770Z,66.97
2018-02-21T09:29:07.293Z,63.10
2018-02-21T09:31:34.717Z,74.73
2018-02-21T09:34:02.462Z,62.10
2018-02-21T09:36:29.925Z,95.97
2018-02-21T09:38:57.393Z,68.70
2018-02-21T09:41:25.222Z,79.17
2018-02-21T09:43:52.686Z,69.90
2018-02-21T09:46:20.146Z,68.20
2018-02-21T09:48:47.821Z,83.77
2018-02-21T09:51:15.280Z,102.43
2018-02-21T09:53:42.733Z,59.03
2018-02-21T09:56:10.820Z,76.87
2018-02-21T09:58:38.277Z,76.60
2018-02-21T10:01:05.730Z,57.67
2018-02-21T10:03:33.514Z,75.13
2018-02-21T10:06:00.960Z,77.73
2018-02-21T10:08:29.411Z,70.00
2018-02-21T10:10:57.133Z,64.87
2018-02-21T10:13:24.587Z,75.77
2018-02-21T10:15:52.048Z,64.67
2018-02-21T10:18:19.796Z,88.97
2018-02-21T10:20:47.296Z,88.17
2018-02-21T10:23:14.773Z,73.50
2018-02-21T10:25:42.793Z,87.13
2018-02-21T10:28:10.251Z,86.17
2018-02-21T10:30:37.711Z,102.43
2018-02-21T10:33:05.489Z,70.33
2018-02-21T10:35:32.948Z,78.23
2018-02-21T10:38:00.412Z,68.73
2018-02-21T10:40:28.494Z,76.37
2018-02-21T10:42:55.944Z,73.00
2018-02-21T10:45:23.444Z,68.30
2018-02-21T10:47:51.174Z,79.23
2018-02-21T10:50:18.628Z,85.67
2018-02-21T10:52:46.082Z,80.67
2018-02-21T10:55:14.153Z,75.33
2018-02-21T10:57:41.601Z,86.60
2018-02-21T11:00:09.066Z,68.70
2018-02-21T11:02:36.846Z,69.70
2018-02-21T11:05:04.301Z,66.67
2018-02-21T11:07:31.751Z,69.07
2018-02-21T11:10:02.653Z,78.80
2018-02-21T11:12:30.196Z,95.27
2018-02-21T11:14:57.660Z,67.77
2018-02-21T11:17:25.604Z,77.37
2018-02-21T11:19:53.072Z,78.57
2018-02-21T11:22:20.529Z,70.10
2018-02-21T11:24:48.290Z,76.33
2018-02-21T11:27:15.761Z,82.10
2018-02-21T11:29:43.239Z,82.20
2018-02-21T11:32:10.925Z,69.80
2018-02-21T11:34:38.382Z,65.23
2018-02-21T11:37:05.840Z,73.67
2018-02-21T11:39:33.656Z,92.63
2018-02-21T11:42:01.113Z,66.57
2018-02-21T11:44:28.571Z,82.47
2018-02-21T11:46:56.348Z,66.07
2018-02-21T11:49:23.810Z,76.77
2018-02-21T11:51:51.257Z,70.80
2018-02-21T11:54:19.028Z,60.53
2018-02-21T11:56:46.509Z,75.10
2018-02-21T11:59:13.964Z,78.60
2018-02-21T12:01:42.075Z,77.60
2018-02-21T12:04:09.538Z,97.37
2018-02-21T12:06:36.995Z,72.07
2018-02-21T12:09:04.714Z,73.10
2018-02-21T12:11:32.541Z,83.33
2018-02-21T12:13:59.995Z,78.53
2018-02-21T12:16:28.020Z,72.90
2018-02-21T12:18:55.480Z,80.40
2018-02-21T12:21:23.008Z,83.33
2018-02-21T12:23:51.009Z,72.00
2018-02-21T12:26:18.472Z,76.57
2018-02-21T12:28:45.938Z,82.57
2018-02-21T12:31:13.701Z,67.30
2018-02-21T12:33:41.169Z,60.13
2018-02-21T12:36:08.623Z,75.70
2018-02-21T12:38:36.393Z,66.73
2018-02-21T12:41:09.419Z,62.80
2018-02-21T12:43:36.879Z,76.03
2018-02-21T12:46:04.618Z,77.43
2018-02-21T12:48:32.074Z,61.90
2018-02-21T12:50:59.530Z,81.33
2018-02-21T12:53:28.208Z,74.60
2018-02-21T12:55:55.664Z,67.77
2018-02-21T12:58:23.185Z,82.80
2018-02-21T13:00:51.200Z,74.63
2018-02-21T13:03:19.146Z,67.80
2018-02-21T13:05:46.590Z,83.67
2018-02-21T13:08:14.477Z,77.73
2018-02-21T13:10:41.928Z,72.60
2018-02-21T13:13:09.808Z,70.50
2018-02-21T13:15:37.661Z,67.10
2018-02-21T13:18:05.115Z,89.27
2018-02-21T13:20:32.578Z,75.00
2018-02-21T13:23:00.490Z,73.37
2018-02-21T13:25:27.942Z,73.87
2018-02-21T13:27:55.416Z,67.70
2018-02-21T13:30:23.198Z,70.23
2018-02-21T13:32:50.649Z,71.33
2018-02-21T13:35:18.105Z,62.57
2018-02-21T13:37:46.513Z,68.23
2018-02-21T13:40:13.957Z,60.60
2018-02-21T13:42:41.417Z,63.70
2018-02-21T13:45:09.222Z,84.37
2018-02-21T13:47:36.681Z,62.93
2018-02-21T13:50:04.141Z,58.23
2018-02-21T13:52:31.814Z,67.37
2018-02-21T13:54:59.270Z,68.17
2018-02-21T13:57:26.722Z,70.97
2018-02-21T13:59:55.772Z,92.47
2018-02-21T14:02:23.252Z,69.73
2018-02-21T14:04:50.717Z,70.20
2018-02-21T14:07:18.460Z,74.43
2018-02-21T14:09:45.924Z,60.37
2018-02-21T14:12:13.422Z,79.27
2018-02-21T14:14:41.741Z,56.43
2018-02-21T14:17:09.198Z,55.37
2018-02-21T14:19:36.652Z,75.83
2018-02-21T14:22:04.744Z,66.40
2018-02-21T14:24:32.196Z,64.13
2018-02-21T14:26:59.645Z,56.43
2018-02-21T14:29:27.437Z,53.77
2018-02-21T14:31:54.895Z,74.17
2018-02-21T14:34:22.359Z,50.50
2018-02-21T14:36:50.124Z,54.63
2018-02-21T14:39:17.586Z,52.53
2018-02-21T14:41:45.092Z,55.53
2018-02-21T14:44:13.117Z,49.47
2018-02-21T14:46:40.586Z,62.47
2018-02-21T14:49:08.041Z,53.53
2018-02-21T14:51:35.797Z,76.07
2018-02-21T14:54:03.257Z,65.63
2018-02-21T14:56:30.709Z,64.20
2018-02-21T14:58:58.810Z,54.60
2018-02-21T15:01:26.273Z,74.43
2018-02-21T15:03:53.736Z,72.77
2018-02-21T15:06:21.497Z,53.23
2018-02-21T15:08:48.945Z,63.27
2018-02-21T15:11:16.405Z,67.00
2018-02-21T15:13:44.040Z,61.30
2018-02-21T15:16:18.136Z,64.60
2018-02-21T15:18:48.929Z,85.83
2018-02-21T15:21:16.401Z,63.50
2018-02-21T15:23:43.852Z,51.93
2018-02-21T15:26:11.927Z,71.33
2018-02-21T15:28:39.423Z,65.23
2018-02-21T15:31:06.916Z,58.77
2018-02-21T15:33:34.596Z,55.70
2018-02-21T15:36:02.046Z,60.13
2018-02-21T15:38:29.536Z,74.80
2018-02-21T15:40:57.338Z,64.90
2018-02-21T15:43:24.811Z,66.97
2018-02-21T15:45:52.297Z,78.90
2018-02-21T15:48:20.026Z,68.97
2018-02-21T15:50:47.504Z,64.77
2018-02-21T15:53:14.962Z,88.80
2018-02-21T15:55:42.670Z,70.63
2018-02-21T15:58:10.167Z,59.70
2018-02-21T16:00:37.617Z,59.67
2018-02-21T16:03:05.368Z,65.40
2018-02-21T16:05:32.818Z,70.40
2018-02-21T16:08:00.278Z,77.27
2018-02-21T16:10:28.041Z,74.00
2018-02-21T16:12:55.504Z,55.63
2018-02-21T16:15:23.005Z,62.50
2018-02-21T16:17:52.826Z,58.43
2018-02-21T16:20:20.282Z,61.73
2018-02-21T16:22:47.741Z,70.50
2018-02-21T16:25:15.560Z,68.57
2018-02-21T16:27:43.026Z,68.30
2018-02-21T16:30:10.481Z,64.47
2018-02-21T16:32:38.257Z,75.87
2018-02-21T16:35:05.736Z,55.80
2018-02-21T16:37:33.199Z,63.03
2018-02-21T16:40:00.974Z,56.47
2018-02-21T16:42:28.439Z,72.70
2018-02-21T16:44:55.910Z,66.57
2018-02-21T16:47:23.630Z,70.93
2018-02-21T16:49:51.081Z,54.33
2018-02-21T16:52:18.529Z,51.50
2018-02-21T16:54:46.303Z,54.97
2018-02-21T16:57:13.761Z,59.63
2018-02-21T16:59:41.220Z,68.50
2018-02-21T17:02:08.996Z,60.13
2018-02-21T17:04:36.461Z,60.20
2018-02-21T17:07:03.921Z,60.03
2018-02-21T17:09:31.684Z,77.90
2018-02-21T17:11:59.159Z,106.13
2018-02-21T17:14:26.633Z,65.60
2018-02-21T17:16:54.371Z,63.60
2018-02-21T17:19:22.524Z,76.10
2018-02-21T17:21:49.982Z,72.60
2018-02-21T17:24:17.665Z,53.63
2018-02-21T17:26:45.120Z,67.37
2018-02-21T17:29:12.599Z,79.17
2018-02-21T17:31:40.653Z,81.90
2018-02-21T17:34:08.101Z,75.80
2018-02-21T17:36:35.620Z,95.13
2018-02-21T17:39:03.667Z,73.67
2018-02-21T17:41:32.917Z,89.53
2018-02-21T17:44:00.366Z,95.10
2018-02-21T17:46:28.196Z,100.73
2018-02-21T17:48:55.657Z,84.33
2018-02-21T17:51:23.112Z,89.17
2018-02-21T17:53:50.902Z,96.50
2018-02-21T17:56:18.357Z,89.03
2018-02-21T17:58:45.817Z,73.63
2018-02-21T18:01:13.559Z,83.00
2018-02-21T18:03:41.070Z,75.53
2018-02-21T18:06:08.540Z,78.80
2018-02-21T18:08:36.468Z,100.10
2018-02-21T18:11:03.925Z,86.30
2018-02-21T18:13:31.397Z,95.30
2018-02-21T18:15:59.261Z,95.77
2018-02-21T18:18:26.727Z,105.67
2018-02-21T18:20:54.692Z,105.80
2018-02-21T18:23:22.353Z,103.77
2018-02-21T18:25:49.820Z,99.40
2018-02-21T18:28:17.345Z,84.47
2018-02-21T18:30:45.221Z,95.50
2018-02-21T18:33:12.680Z,100.80
2018-02-21T18:35:40.134Z,98.87
2018-02-21T18:38:08.529Z,114.73
2018-02-21T18:40:36.073Z,100.77
2018-02-21T18:43:03.617Z,114.57
2018-02-21T18:45:31.528Z,120.50
2018-02-21T18:47:58.984Z,107.17
2018-02-21T18:50:26.429Z,87.70
2018-02-21T18:52:54.184Z,96.27
2018-02-21T18:55:21.689Z,104.73
2018-02-21T18:57:49.165Z,115.93
2018-02-21T19:00:16.900Z,91.37
2018-02-21T19:02:44.355Z,114.83
2018-02-21T19:05:11.834Z,106.50
2018-02-21T19:07:39.656Z,115.17
2018-02-21T19:10:07.114Z,92.00
2018-02-21T19:12:35.208Z,109.40
2018-02-21T19:15:03.532Z,112.00
2018-02-21T19:17:30.986Z,102.23
2018-02-21T19:19:58.444Z,94.97
2018-02-21T19:22:27.725Z,87.53
2018-02-21T19:24:55.173Z,95.37
2018-02-21T19:27:22.684Z,115.13
2018-02-21T19:29:50.378Z,115.83
2018-02-21T19:32:17.837Z,97.80
2018-02-21T19:34:45.291Z,102.93
2018-02-21T19:37:13.158Z,86.60
2018-02-21T19:39:40.570Z,111.53
2018-02-21T19:42:08.093Z,115.43
2018-02-21T19:44:36.090Z,115.23
2018-02-21T19:47:04.549Z,91.83
2018-02-21T19:49:32.012Z,122.40
2018-02-21T19:52:00.021Z,95.00
2018-02-21T19:54:27.485Z,123.37
2018-02-21T19:56:54.958Z,113.80
2018-02-21T19:59:23.029Z,111.77
2018-02-21T20:01:50.485Z,100.03
2018-02-21T20:04:17.939Z,104.47
2018-02-21T20:06:45.697Z,113.80
2018-02-21T20:09:13.176Z,119.93
2018-02-21T20:11:40.634Z,111.40
2018-02-21T20:14:08.379Z,109.87
2018-02-21T20:16:35.841Z,99.13
2018-02-21T20:19:03.301Z,133.73
2018-02-21T20:21:31.076Z,100.00
2018-02-21T20:23:58.866Z,106.13
2018-02-21T20:26:26.313Z,98.37
2018-02-21T20:28:54.075Z,118.03
2018-02-21T20:31:21.535Z,116.20
2018-02-21T20:33:49.001Z,108.73
2018-02-21T20:36:17.048Z,134.33
2018-02-21T20:38:44.508Z,104.83
2018-02-21T20:41:11.963Z,105.97
2018-02-21T20:43:39.737Z,95.13
2018-02-21T20:46:07.201Z,104.33
2018-02-21T20:48:34.664Z,112.97
2018-02-21T20:51:02.433Z,95.53
2018-02-21T20:53:29.920Z,96.27
2018-02-21T20:55:57.373Z,99.03
2018-02-21T20:58:25.125Z,95.27
2018-02-21T21:00:52.610Z,92.17
2018-02-21T21:03:20.093Z,96.60
2018-02-21T21:05:48.108Z,104.93
2018-02-21T21:08:15.570Z,98.27
2018-02-21T21:10:43.060Z,107.07
2018-02-21T21:13:11.099Z,108.33
2018-02-21T21:15:38.556Z,101.80
2018-02-21T21:18:06.026Z,120.30
2018-02-21T21:20:34.094Z,93.27
2018-02-21T21:23:01.546Z,89.23
2018-02-21T21:25:29.722Z,86.30
2018-02-21T21:27:57.676Z,85.77
2018-02-21T21:30:25.126Z,72.13
2018-02-21T21:32:52.580Z,77.23
2018-02-21T21:35:20.745Z,86.57
2018-02-21T21:37:48.203Z,71.13
2018-02-21T21:40:15.658Z,65.47
2018-02-21T21:42:43.382Z,65.97
2018-02-21T21:45:10.834Z,59.97
2018-02-21T21:47:38.289Z,55.70
2018-02-21T21:50:06.078Z,65.67
2018-02-21T21:52:33.564Z,59.87
2018-02-21T21:55:01.029Z,91.27
2018-02-21T21:57:28.758Z,52.23
2018-02-21T21:59:56.200Z,82.63
2018-02-21T22:02:23.648Z,78.97
2018-02-21T22:04:51.450Z,117.37
2018-02-21T22:07:18.901Z,127.50
2018-02-21T22:09:46.356Z,112.00
2018-02-21T22:12:14.134Z,135.27
2018-02-21T22:14:41.588Z,115.20
2018-02-21T22:17:09.054Z,126.73
2018-02-21T22:19:36.817Z,129.43
2018-02-21T22:22:04.264Z,93.10
2018-02-21T22:24:31.716Z,98.13
2018-02-21T22:26:59.812Z,92.03
2018-02-21T22:29:27.285Z,77.50
2018-02-21T22:31:54.751Z,106.17
2018-02-21T22:34:22.493Z,95.17
2018-02-21T22:36:49.961Z,101.20
2018-02-21T22:39:17.472Z,84.57
2018-02-21T22:41:45.507Z,86.63
2018-02-21T22:44:12.956Z,94.87
2018-02-21T22:46:40.417Z,87.80
2018-02-21T22:49:08.178Z,107.43
2018-02-21T22:51:35.637Z,87.87
2018-02-21T22:54:03.120Z,78.83
2018-02-21T22:56:30.692Z,112.63
2018-02-21T22:58:58.156Z,105.57
2018-02-21T23:01:25.616Z,94.17
2018-02-21T23:03:53.239Z,89.77
2018-02-21T23:06:20.685Z,91.20
2018-02-21T23:08:48.138Z,91.83
2018-02-21T23:11:15.933Z,87.60
2018-02-21T23:13:43.389Z,98.63
2018-02-21T23:16:10.842Z,96.43
2018-02-21T23:18:38.618Z,82.23
2018-02-21T23:21:06.074Z,76.57
2018-02-21T23:23:33.587Z,82.43
2018-02-21T23:26:01.338Z,90.20
2018-02-21T23:28:28.851Z,88.60
2018-02-21T23:30:56.306Z,77.17
2018-02-21T23:33:24.294Z,85.60
2018-02-21T23:35:51.746Z,84.40
2018-02-21T23:38:19.204Z,76.03
2018-02-21T23:40:47.296Z,92.73
2018-02-21T23:43:14.782Z,95.93
2018-02-21T23:45:42.223Z,67.03
2018-02-21T23:48:09.997Z,86.13
2018-02-21T23:50:37.458Z,74.13
2018-02-21T23:53:04.910Z,89.13
2018-02-21T23:55:32.714Z,89.50
2018-02-21T23:58:00.176Z,90.63
